createdAt,value
2019-03-09T00:02:02.212Z,73.10
2019-03-09T00:04:31.985Z,73.20
2019-03-09T00:07:01.787Z,73.30
2019-03-09T00:09:31.567Z,73.30
2019-03-09T00:12:01.619Z,73.40
2019-03-09T00:14:32.458Z,73.60
2019-03-09T00:17:02.250Z,73.50
2019-03-09T00:19:32.018Z,73.60
2019-03-09T00:22:01.791Z,73.70
2019-03-09T00:24:33.478Z,73.60
2019-03-09T00:27:07.900Z,73.70
2019-03-09T00:29:45.062Z,73.40
2019-03-09T00:32:16.490Z,73.50
2019-03-09T00:34:46.262Z,73.50
2019-03-09T00:37:16.052Z,73.70
2019-03-09T00:39:45.839Z,74.00
2019-03-09T00:42:15.616Z,74.70
2019-03-09T00:44:45.389Z,75.90
2019-03-09T00:47:15.178Z,76.90
2019-03-09T00:49:44.943Z,78.10
2019-03-09T00:52:14.744Z,78.40
2019-03-09T00:54:44.531Z,79.30
2019-03-09T00:57:14.306Z,79.50
2019-03-09T00:59:44.096Z,79.90
2019-03-09T01:02:13.878Z,80.00
2019-03-09T01:04:43.662Z,80.60
2019-03-09T01:07:13.453Z,80.60
2019-03-09T01:09:43.229Z,81.20
2019-03-09T01:12:13.004Z,81.50
2019-03-09T01:14:42.782Z,81.30
2019-03-09T01:17:12.550Z,81.90
2019-03-09T01:19:42.331Z,81.20
2019-03-09T01:22:12.110Z,81.00
2019-03-09T01:24:41.885Z,81.70
2019-03-09T01:27:11.651Z,82.00
2019-03-09T01:29:41.427Z,82.40
2019-03-09T01:32:11.208Z,82.70
2019-03-09T01:34:40.985Z,82.80
2019-03-09T01:37:10.823Z,83.00
2019-03-09T01:39:40.670Z,83.00
2019-03-09T01:42:10.507Z,83.50
2019-03-09T01:44:40.293Z,83.70
2019-03-09T01:47:10.064Z,84.30
2019-03-09T01:49:39.849Z,84.50
2019-03-09T01:52:09.617Z,84.60
2019-03-09T01:54:39.466Z,84.80
2019-03-09T01:57:09.240Z,85.10
2019-03-09T01:59:39.023Z,85.30
2019-03-09T02:02:08.859Z,85.50
2019-03-09T02:04:38.643Z,85.80
2019-03-09T02:07:08.413Z,86.40
2019-03-09T02:09:38.268Z,86.90
2019-03-09T02:12:08.040Z,86.90
2019-03-09T02:14:37.823Z,86.30
2019-03-09T02:17:07.595Z,86.80
2019-03-09T02:19:40.555Z,86.60
2019-03-09T02:22:10.325Z,86.10
2019-03-09T02:24:40.107Z,86.30
2019-03-09T02:27:09.951Z,86.50
2019-03-09T02:29:39.741Z,86.70
2019-03-09T02:32:09.514Z,86.80
2019-03-09T02:34:39.297Z,86.70
2019-03-09T02:37:09.081Z,87.30
2019-03-09T02:39:40.509Z,87.80
2019-03-09T02:42:10.310Z,88.30
2019-03-09T02:44:40.076Z,88.60
2019-03-09T02:47:09.892Z,89.00
2019-03-09T02:49:39.641Z,89.10
2019-03-09T02:52:09.414Z,88.90
2019-03-09T02:54:39.254Z,89.40
2019-03-09T02:57:09.046Z,89.70
2019-03-09T02:59:38.837Z,89.20
2019-03-09T03:02:13.272Z,88.90
2019-03-09T03:04:43.060Z,88.70
2019-03-09T03:07:12.821Z,88.70
2019-03-09T03:09:43.570Z,88.60
2019-03-09T03:12:13.420Z,88.40
2019-03-09T03:14:43.176Z,88.60
2019-03-09T03:17:12.961Z,88.70
2019-03-09T03:19:42.737Z,88.60
2019-03-09T03:22:12.588Z,88.90
2019-03-09T03:24:42.367Z,89.50
2019-03-09T03:27:12.168Z,89.90
2019-03-09T03:29:41.971Z,90.20
2019-03-09T03:32:11.825Z,90.30
2019-03-09T03:34:41.573Z,90.50
2019-03-09T03:37:11.346Z,90.30
2019-03-09T03:39:42.503Z,90.40
2019-03-09T03:42:12.290Z,90.50
2019-03-09T03:44:44.974Z,90.50
2019-03-09T03:47:14.898Z,90.90
2019-03-09T03:49:44.676Z,91.10
2019-03-09T03:52:14.455Z,91.30
2019-03-09T03:54:44.234Z,91.50
2019-03-09T03:57:14.124Z,91.90
2019-03-09T03:59:43.911Z,92.10
2019-03-09T04:02:13.699Z,92.20
2019-03-09T04:04:43.567Z,92.10
2019-03-09T04:07:13.480Z,91.90
2019-03-09T04:09:43.393Z,91.90
2019-03-09T04:12:13.244Z,91.90
2019-03-09T04:14:43.095Z,91.70
2019-03-09T04:17:12.864Z,91.70
2019-03-09T04:19:43.628Z,91.60
2019-03-09T04:22:13.395Z,91.60
2019-03-09T04:24:43.183Z,91.60
2019-03-09T04:27:12.977Z,91.50
2019-03-09T04:29:42.811Z,91.40
2019-03-09T04:32:12.651Z,91.50
2019-03-09T04:34:42.507Z,91.70
2019-03-09T04:37:12.311Z,91.90
2019-03-09T04:39:42.069Z,92.00
2019-03-09T04:42:11.850Z,92.00
2019-03-09T04:44:41.619Z,91.90
2019-03-09T04:47:11.470Z,91.90
2019-03-09T04:49:41.259Z,92.00
2019-03-09T04:52:11.048Z,92.00
2019-03-09T04:54:40.810Z,92.00
2019-03-09T04:57:10.582Z,92.00
2019-03-09T04:59:40.354Z,91.90
2019-03-09T05:02:10.143Z,92.10
2019-03-09T05:04:42.252Z,92.30
2019-03-09T05:07:15.813Z,92.20
2019-03-09T05:09:57.243Z,92.20
2019-03-09T05:12:27.090Z,92.20
2019-03-09T05:14:56.864Z,92.10
2019-03-09T05:17:26.646Z,92.00
2019-03-09T05:19:56.414Z,91.90
2019-03-09T05:22:26.219Z,91.80
2019-03-09T05:24:55.984Z,91.70
2019-03-09T05:27:25.783Z,91.70
2019-03-09T05:29:55.532Z,91.80
2019-03-09T05:32:25.310Z,91.90
2019-03-09T05:34:55.100Z,91.70
2019-03-09T05:37:24.890Z,91.80
2019-03-09T05:39:54.672Z,91.70
2019-03-09T05:42:24.455Z,91.70
2019-03-09T05:44:54.230Z,91.60
2019-03-09T05:47:24.004Z,91.70
2019-03-09T05:49:53.788Z,91.60
2019-03-09T05:52:26.647Z,91.50
2019-03-09T05:54:56.503Z,91.50
2019-03-09T05:57:26.277Z,91.40
2019-03-09T05:59:56.068Z,91.20
2019-03-09T06:02:25.837Z,91.10
2019-03-09T06:04:55.617Z,91.40
2019-03-09T06:07:25.387Z,91.40
2019-03-09T06:09:55.171Z,91.50
2019-03-09T06:12:24.942Z,91.50
2019-03-09T06:14:54.723Z,91.50
2019-03-09T06:17:24.494Z,91.50
2019-03-09T06:19:54.292Z,91.50
2019-03-09T06:22:24.050Z,91.50
2019-03-09T06:24:53.828Z,91.50
2019-03-09T06:27:23.624Z,91.50
2019-03-09T06:29:53.388Z,91.50
2019-03-09T06:32:35.228Z,91.40
2019-03-09T06:35:11.366Z,91.30
2019-03-09T06:37:44.468Z,91.20
2019-03-09T06:40:14.222Z,90.90
2019-03-09T06:42:46.647Z,90.90
2019-03-09T06:45:16.859Z,90.70
2019-03-09T06:47:46.644Z,90.60
2019-03-09T06:50:17.056Z,90.70
2019-03-09T06:52:46.828Z,90.50
2019-03-09T06:55:16.632Z,90.00
2019-03-09T06:57:46.409Z,89.70
2019-03-09T07:00:33.672Z,89.40
2019-03-09T07:03:03.786Z,89.40
2019-03-09T07:05:33.575Z,90.00
2019-03-09T07:08:03.440Z,89.00
2019-03-09T07:10:33.215Z,89.10
2019-03-09T07:13:03.002Z,88.90
2019-03-09T07:15:35.392Z,89.10
2019-03-09T07:18:07.534Z,89.00
2019-03-09T07:20:37.318Z,89.10
2019-03-09T07:23:07.112Z,89.00
2019-03-09T07:25:36.914Z,89.00
2019-03-09T07:28:11.590Z,88.90
2019-03-09T07:30:42.438Z,88.60
2019-03-09T07:33:12.232Z,88.50
2019-03-09T07:35:42.092Z,88.30
2019-03-09T07:38:11.872Z,88.00
2019-03-09T07:40:41.660Z,88.10
2019-03-09T07:43:11.440Z,88.20
2019-03-09T07:45:41.222Z,88.10
2019-03-09T07:48:10.998Z,87.80
2019-03-09T07:50:40.792Z,87.60
2019-03-09T07:53:10.584Z,87.30
2019-03-09T07:55:40.363Z,87.10
2019-03-09T07:58:10.171Z,87.00
2019-03-09T08:00:40.206Z,86.90
2019-03-09T08:03:09.990Z,87.10
2019-03-09T08:05:39.780Z,86.70
2019-03-09T08:08:09.576Z,86.30
2019-03-09T08:10:39.394Z,86.20
2019-03-09T08:13:09.155Z,86.50
2019-03-09T08:15:39.012Z,86.00
2019-03-09T08:18:08.812Z,85.00
2019-03-09T08:20:38.598Z,84.90
2019-03-09T08:23:09.374Z,85.10
2019-03-09T08:25:39.173Z,84.90
2019-03-09T08:28:08.950Z,85.10
2019-03-09T08:30:39.184Z,84.60
2019-03-09T08:33:08.966Z,85.40
2019-03-09T08:35:38.739Z,85.60
2019-03-09T08:38:08.532Z,83.90
2019-03-09T08:40:38.304Z,83.30
2019-03-09T08:43:08.086Z,83.20
2019-03-09T08:45:37.898Z,83.20
2019-03-09T08:48:07.737Z,83.20
2019-03-09T08:50:38.586Z,82.80
2019-03-09T08:53:08.368Z,82.60
2019-03-09T08:55:38.202Z,82.30
2019-03-09T08:58:08.083Z,82.40
2019-03-09T09:00:37.909Z,81.90
2019-03-09T09:03:07.692Z,81.30
2019-03-09T09:05:39.579Z,80.90
2019-03-09T09:08:09.025Z,80.20
2019-03-09T09:10:38.854Z,80.10
2019-03-09T09:13:08.640Z,79.90
2019-03-09T09:15:38.423Z,79.20
2019-03-09T09:18:08.234Z,79.10
2019-03-09T09:20:38.008Z,78.70
2019-03-09T09:23:07.798Z,79.00
2019-03-09T09:25:37.586Z,78.90
2019-03-09T09:28:07.362Z,78.60
2019-03-09T09:30:37.145Z,78.20
2019-03-09T09:33:06.923Z,79.40
2019-03-09T09:35:36.723Z,77.70
2019-03-09T09:38:07.572Z,77.70
2019-03-09T09:40:37.357Z,77.60
2019-03-09T09:43:07.148Z,77.60
2019-03-09T09:45:36.939Z,77.60
2019-03-09T09:48:06.728Z,78.20
2019-03-09T09:50:36.509Z,77.50
2019-03-09T09:53:06.291Z,76.90
2019-03-09T09:55:36.067Z,76.70
2019-03-09T09:58:05.892Z,76.90
2019-03-09T10:00:35.679Z,76.60
2019-03-09T10:03:05.540Z,76.30
2019-03-09T10:05:35.331Z,76.50
2019-03-09T10:08:05.130Z,75.70
2019-03-09T10:10:34.974Z,75.50
2019-03-09T10:13:04.812Z,75.90
2019-03-09T10:15:34.679Z,74.70
2019-03-09T10:18:04.519Z,74.40
2019-03-09T10:20:34.345Z,74.70
2019-03-09T10:23:05.188Z,72.90
2019-03-09T10:25:35.119Z,72.90
2019-03-09T10:28:04.904Z,73.20
2019-03-09T10:30:34.784Z,72.00
2019-03-09T10:33:04.655Z,70.70
2019-03-09T10:35:34.436Z,71.00
2019-03-09T10:38:04.931Z,70.60
2019-03-09T10:40:34.695Z,70.70
2019-03-09T10:43:04.563Z,71.10
2019-03-09T10:45:34.343Z,71.90
2019-03-09T10:48:04.277Z,70.80
2019-03-09T10:50:34.067Z,70.70
2019-03-09T10:53:03.848Z,70.00
2019-03-09T10:55:34.782Z,70.20
2019-03-09T10:58:05.291Z,69.60
2019-03-09T11:00:39.897Z,70.10
2019-03-09T11:03:09.666Z,69.40
2019-03-09T11:05:40.503Z,68.80
2019-03-09T11:08:10.368Z,68.80
2019-03-09T11:10:40.145Z,69.20
2019-03-09T11:13:09.943Z,69.60
2019-03-09T11:15:39.791Z,69.70
2019-03-09T11:18:09.583Z,69.50
2019-03-09T11:20:39.372Z,69.10
2019-03-09T11:23:09.185Z,68.50
2019-03-09T11:25:38.979Z,68.10
2019-03-09T11:28:10.494Z,68.30
2019-03-09T11:30:40.355Z,67.90
2019-03-09T11:33:10.123Z,67.90
2019-03-09T11:35:39.975Z,67.30
2019-03-09T11:38:09.781Z,66.70
2019-03-09T11:40:39.559Z,66.40
2019-03-09T11:43:09.364Z,65.00
2019-03-09T11:45:39.136Z,64.70
2019-03-09T11:48:09.004Z,64.90
2019-03-09T11:50:38.791Z,65.10
2019-03-09T11:53:08.562Z,64.00
2019-03-09T11:55:38.356Z,63.60
2019-03-09T11:58:08.204Z,63.60
2019-03-09T12:00:39.717Z,62.90
2019-03-09T12:03:09.500Z,62.70
2019-03-09T12:05:39.313Z,62.60
2019-03-09T12:08:09.090Z,62.50
2019-03-09T12:10:38.913Z,62.70
2019-03-09T12:13:08.692Z,61.50
2019-03-09T12:15:38.469Z,61.30
2019-03-09T12:18:08.255Z,60.10
2019-03-09T12:20:38.090Z,60.10
2019-03-09T12:23:13.910Z,60.00
2019-03-09T12:25:43.683Z,60.50
2019-03-09T12:28:13.475Z,59.80
2019-03-09T12:30:43.268Z,59.80
2019-03-09T12:33:13.040Z,59.60
2019-03-09T12:35:44.117Z,59.20
2019-03-09T12:38:14.168Z,60.00
2019-03-09T12:40:44.016Z,60.60
2019-03-09T12:43:13.793Z,61.10
2019-03-09T12:45:43.601Z,60.60
2019-03-09T12:48:13.398Z,60.80
2019-03-09T12:50:43.181Z,61.80
2019-03-09T12:53:14.223Z,61.80
2019-03-09T12:55:44.387Z,62.30
2019-03-09T12:58:14.260Z,62.30
2019-03-09T13:00:44.079Z,61.70
2019-03-09T13:03:13.883Z,60.70
2019-03-09T13:05:43.668Z,59.20
2019-03-09T13:08:13.459Z,58.50
2019-03-09T13:10:43.263Z,58.60
2019-03-09T13:13:13.047Z,58.30
2019-03-09T13:15:42.958Z,58.30
2019-03-09T13:18:12.756Z,56.80
2019-03-09T13:20:42.568Z,56.20
2019-03-09T13:23:12.350Z,55.60
2019-03-09T13:25:42.158Z,55.30
2019-03-09T13:28:12.001Z,56.20
2019-03-09T13:30:41.775Z,57.00
2019-03-09T13:33:11.571Z,57.30
2019-03-09T13:35:41.343Z,57.50
2019-03-09T13:38:11.143Z,57.80
2019-03-09T13:40:41.004Z,58.10
2019-03-09T13:43:10.785Z,56.80
2019-03-09T13:45:40.605Z,56.20
2019-03-09T13:48:10.383Z,56.40
2019-03-09T13:50:40.175Z,57.90
2019-03-09T13:53:09.957Z,59.00
2019-03-09T13:55:39.748Z,59.60
2019-03-09T13:58:09.552Z,62.00
2019-03-09T14:00:40.733Z,65.50
2019-03-09T14:03:10.887Z,67.40
2019-03-09T14:05:40.663Z,69.50
2019-03-09T14:08:10.528Z,70.40
2019-03-09T14:10:40.319Z,72.70
2019-03-09T14:13:10.210Z,74.90
2019-03-09T14:15:40.061Z,76.80
2019-03-09T14:18:09.873Z,76.70
2019-03-09T14:20:39.655Z,77.40
2019-03-09T14:23:09.451Z,80.10
2019-03-09T14:25:39.264Z,79.30
2019-03-09T14:28:09.081Z,76.70
2019-03-09T14:30:38.875Z,75.60
2019-03-09T14:33:08.661Z,74.60
2019-03-09T14:35:38.451Z,71.80
2019-03-09T14:38:08.232Z,73.10
2019-03-09T14:40:38.037Z,73.00
2019-03-09T14:43:07.817Z,73.40
2019-03-09T14:45:37.624Z,71.40
2019-03-09T14:48:07.401Z,70.60
2019-03-09T14:50:38.196Z,71.40
2019-03-09T14:53:07.979Z,72.20
2019-03-09T14:55:37.789Z,72.10
2019-03-09T14:58:07.568Z,72.20
2019-03-09T15:00:37.347Z,73.50
2019-03-09T15:03:08.215Z,73.10
2019-03-09T15:05:38.308Z,72.90
2019-03-09T15:08:08.107Z,72.60
2019-03-09T15:10:37.965Z,73.40
2019-03-09T15:13:07.751Z,74.00
2019-03-09T15:15:37.551Z,72.90
2019-03-09T15:18:07.339Z,71.20
2019-03-09T15:20:37.127Z,72.50
2019-03-09T15:23:06.911Z,73.60
2019-03-09T15:25:36.717Z,74.70
2019-03-09T15:28:06.505Z,76.90
2019-03-09T15:30:36.303Z,75.90
2019-03-09T15:33:06.137Z,75.70
2019-03-09T15:35:35.891Z,76.50
2019-03-09T15:38:05.894Z,75.00
2019-03-09T15:40:36.645Z,73.50
2019-03-09T15:43:06.467Z,74.00
2019-03-09T15:45:36.242Z,72.90
2019-03-09T15:48:06.034Z,71.30
2019-03-09T15:50:35.907Z,71.50
2019-03-09T15:53:05.834Z,71.90
2019-03-09T15:55:35.623Z,70.20
2019-03-09T15:58:05.504Z,69.00
2019-03-09T16:00:36.260Z,69.00
2019-03-09T16:03:07.402Z,68.60
2019-03-09T16:05:37.265Z,68.60
2019-03-09T16:08:07.060Z,69.40
2019-03-09T16:10:36.842Z,69.60
2019-03-09T16:13:06.639Z,71.00
2019-03-09T16:15:36.509Z,71.80
2019-03-09T16:18:06.289Z,72.40
2019-03-09T16:20:36.086Z,72.80
2019-03-09T16:23:05.874Z,74.70
2019-03-09T16:25:35.679Z,76.70
2019-03-09T16:28:05.601Z,80.60
2019-03-09T16:30:35.401Z,82.10
2019-03-09T16:33:05.179Z,83.00
2019-03-09T16:35:34.983Z,83.60
2019-03-09T16:38:04.839Z,82.00
2019-03-09T16:40:40.511Z,82.60
2019-03-09T16:43:06.107Z,82.50
2019-03-09T16:45:35.903Z,82.90
2019-03-09T16:48:05.705Z,83.20
2019-03-09T16:50:35.569Z,82.00
2019-03-09T16:53:05.351Z,79.90
2019-03-09T16:55:35.151Z,78.60
2019-03-09T16:58:04.995Z,79.60
2019-03-09T17:00:34.801Z,79.40
2019-03-09T17:03:05.643Z,76.50
2019-03-09T17:05:35.439Z,73.60
2019-03-09T17:08:05.315Z,73.00
2019-03-09T17:10:35.112Z,71.40
2019-03-09T17:13:04.897Z,71.30
2019-03-09T17:15:34.699Z,69.90
2019-03-09T17:18:04.550Z,69.20
2019-03-09T17:20:34.356Z,67.10
2019-03-09T17:23:04.146Z,65.90
2019-03-09T17:25:33.928Z,64.00
2019-03-09T17:28:04.800Z,61.50
2019-03-09T17:30:34.611Z,62.80
2019-03-09T17:33:04.394Z,63.00
2019-03-09T17:35:34.171Z,62.80
2019-03-09T17:38:03.960Z,63.20
2019-03-09T17:40:33.732Z,63.00
2019-03-09T17:43:05.054Z,63.00
2019-03-09T17:45:34.840Z,63.20
2019-03-09T17:48:04.651Z,63.60
2019-03-09T17:50:34.446Z,64.00
2019-03-09T17:53:05.120Z,64.50
2019-03-09T17:55:34.922Z,64.80
2019-03-09T17:58:04.782Z,65.00
2019-03-09T18:00:42.440Z,65.20
2019-03-09T18:03:07.699Z,65.30
2019-03-09T18:05:37.487Z,65.80
2019-03-09T18:08:07.290Z,65.50
2019-03-09T18:10:43.334Z,64.80
2019-03-09T18:13:13.126Z,65.30
2019-03-09T18:15:42.900Z,64.80
2019-03-09T18:18:12.702Z,65.30
2019-03-09T18:20:42.482Z,64.40
2019-03-09T18:23:12.349Z,64.10
2019-03-09T18:25:42.140Z,63.80
2019-03-09T18:28:12.012Z,64.00
2019-03-09T18:30:41.791Z,64.10
2019-03-09T18:33:11.588Z,64.20
2019-03-09T18:35:41.876Z,64.50
2019-03-09T18:38:11.858Z,65.00
2019-03-09T18:40:41.643Z,64.40
2019-03-09T18:43:11.422Z,65.30
2019-03-09T18:45:41.220Z,64.40
2019-03-09T18:48:11.829Z,64.20
2019-03-09T18:50:41.628Z,64.30
2019-03-09T18:53:11.410Z,64.20
2019-03-09T18:55:41.208Z,64.00
2019-03-09T18:58:10.984Z,64.20
2019-03-09T19:00:40.782Z,63.90
2019-03-09T19:03:10.574Z,64.30
2019-03-09T19:05:40.382Z,63.60
2019-03-09T19:08:11.232Z,63.70
2019-03-09T19:10:41.023Z,63.60
2019-03-09T19:13:10.861Z,62.70
2019-03-09T19:15:40.674Z,62.60
2019-03-09T19:18:10.420Z,62.80
2019-03-09T19:20:40.225Z,62.70
2019-03-09T19:23:10.072Z,62.90
2019-03-09T19:25:39.856Z,64.10
2019-03-09T19:28:09.626Z,62.80
2019-03-09T19:30:39.416Z,62.60
2019-03-09T19:33:09.259Z,62.40
2019-03-09T19:35:39.111Z,62.70
2019-03-09T19:38:08.889Z,62.50
2019-03-09T19:40:38.684Z,62.50
2019-03-09T19:43:08.460Z,62.80
2019-03-09T19:45:38.248Z,62.70
2019-03-09T19:48:08.039Z,63.20
2019-03-09T19:50:37.817Z,62.50
2019-03-09T19:53:07.591Z,62.70
2019-03-09T19:55:37.383Z,62.80
2019-03-09T19:58:07.170Z,62.30
2019-03-09T20:00:36.969Z,62.50
2019-03-09T20:03:06.744Z,62.60
2019-03-09T20:05:36.533Z,63.30
2019-03-09T20:08:06.321Z,63.30
2019-03-09T20:10:36.087Z,64.00
2019-03-09T20:13:05.905Z,64.40
2019-03-09T20:15:35.671Z,63.40
2019-03-09T20:18:05.468Z,63.30
2019-03-09T20:20:35.235Z,63.20
2019-03-09T20:23:05.082Z,62.90
2019-03-09T20:25:34.870Z,63.20
2019-03-09T20:28:04.789Z,63.50
2019-03-09T20:30:34.554Z,63.50
2019-03-09T20:33:04.360Z,63.70
2019-03-09T20:35:34.140Z,63.90
2019-03-09T20:38:03.989Z,63.50
2019-03-09T20:40:33.764Z,63.50
2019-03-09T20:43:03.606Z,63.80
2019-03-09T20:45:33.379Z,63.60
2019-03-09T20:48:03.172Z,63.50
2019-03-09T20:50:32.941Z,63.50
2019-03-09T20:53:02.738Z,63.20
2019-03-09T20:55:32.508Z,63.40
2019-03-09T20:58:02.428Z,62.90
2019-03-09T21:00:33.356Z,62.90
2019-03-09T21:03:03.143Z,62.90
2019-03-09T21:05:32.945Z,62.80
2019-03-09T21:08:02.730Z,63.10
2019-03-09T21:10:32.515Z,62.60
2019-03-09T21:13:07.478Z,62.90
2019-03-09T21:15:37.265Z,63.30
2019-03-09T21:18:07.042Z,63.30
2019-03-09T21:20:36.899Z,63.20
2019-03-09T21:23:06.665Z,63.30
2019-03-09T21:25:36.452Z,63.40
2019-03-09T21:28:06.222Z,63.50
2019-03-09T21:30:36.018Z,63.60
2019-03-09T21:33:05.795Z,63.70
2019-03-09T21:35:35.593Z,63.80
2019-03-09T21:38:05.371Z,64.00
2019-03-09T21:40:35.178Z,64.10
2019-03-09T21:43:04.960Z,65.60
2019-03-09T21:45:34.777Z,66.90
2019-03-09T21:48:04.567Z,67.50
2019-03-09T21:50:34.368Z,69.50
2019-03-09T21:53:04.174Z,70.80
2019-03-09T21:55:33.951Z,71.90
2019-03-09T21:58:04.816Z,72.80
2019-03-09T22:00:34.586Z,73.20
2019-03-09T22:03:04.587Z,73.90
2019-03-09T22:05:34.369Z,74.80
2019-03-09T22:08:04.167Z,75.10
2019-03-09T22:10:33.940Z,76.00
2019-03-09T22:13:03.739Z,77.00
2019-03-09T22:15:33.519Z,77.50
2019-03-09T22:18:03.314Z,78.10
2019-03-09T22:20:33.089Z,78.60
2019-03-09T22:23:02.908Z,79.60
2019-03-09T22:25:32.688Z,79.70
2019-03-09T22:28:02.533Z,80.60
2019-03-09T22:30:32.370Z,81.40
2019-03-09T22:33:04.484Z,81.90
2019-03-09T22:35:33.662Z,82.30
2019-03-09T22:38:03.442Z,82.70
2019-03-09T22:40:33.404Z,82.80
2019-03-09T22:43:03.174Z,82.90
2019-03-09T22:45:32.967Z,83.10
2019-03-09T22:48:02.754Z,83.20
2019-03-09T22:50:32.535Z,83.10
2019-03-09T22:53:02.312Z,83.10
2019-03-09T22:55:32.109Z,83.10
2019-03-09T22:58:01.883Z,83.00
2019-03-09T23:00:32.691Z,82.90
2019-03-09T23:03:04.064Z,82.70
2019-03-09T23:05:33.876Z,82.70
2019-03-09T23:08:03.656Z,82.60
2019-03-09T23:10:33.588Z,83.20
2019-03-09T23:13:03.471Z,82.40
2019-03-09T23:15:33.555Z,82.50
2019-03-09T23:18:03.462Z,82.10
2019-03-09T23:20:33.258Z,82.10
2019-03-09T23:23:03.045Z,81.80
2019-03-09T23:25:32.928Z,81.80
2019-03-09T23:28:02.704Z,81.60
2019-03-09T23:30:32.638Z,81.30
2019-03-09T23:33:02.420Z,81.10
2019-03-09T23:35:32.214Z,81.00
2019-03-09T23:38:01.982Z,81.00
2019-03-09T23:40:31.782Z,80.70
2019-03-09T23:43:01.576Z,80.60
2019-03-09T23:45:31.353Z,80.30
2019-03-09T23:48:01.420Z,80.30
2019-03-09T23:50:31.201Z,79.90
2019-03-09T23:53:00.982Z,79.70
2019-03-09T23:55:30.764Z,79.80
2019-03-09T23:58:00.616Z,79.40
